Tijnje, Netherlands
Current Conditions -  °F | °C
As of 7:08 AM on Sunday 23 Nov 2014 (Local Time) from EHLW Reporting Station
Haze Haze  
Wind Chill: 45°   Ceiling: 2100
Heat Index: 48°   Visibility: 4mi
Dew Point: 46°   Wind: 8mph
Humidity: 93%   Direction: 170°S
Pressure: 30"   Gusts: NA
Location:  53.03°N, 5.99°E
Report Text: EHLW 230608Z AUTO 17007KT 6000 BR BKN021 OVC110 09/08 Q1016 WHT
Loading
Personal Weather Stations






























Interactive Weather Map New forecast layout! Learn more

10-Day Weather Forecast

Advertisements
Track Severe Weather on mobile